createdAt,value
2022-11-19T00:00:45.943Z,6.05
2022-11-19T00:05:49.763Z,5.60
2022-11-19T00:10:51.636Z,5.55
2022-11-19T00:15:53.405Z,5.55
2022-11-19T00:20:56.538Z,5.60
2022-11-19T00:26:08.515Z,6.13
2022-11-19T00:31:13.799Z,5.65
2022-11-19T00:36:15.910Z,5.07
2022-11-19T00:41:17.799Z,6.28
2022-11-19T00:46:26.033Z,5.70
2022-11-19T00:51:30.616Z,6.07
2022-11-19T00:56:32.791Z,5.55
2022-11-19T01:01:34.768Z,5.60
2022-11-19T01:06:37.061Z,4.72
2022-11-19T01:11:39.281Z,5.07
2022-11-19T01:16:41.923Z,4.28
2022-11-19T01:21:43.945Z,5.32
2022-11-19T01:26:46.340Z,6.15
2022-11-19T01:31:48.493Z,5.85
2022-11-19T01:36:50.911Z,5.72
2022-11-19T01:41:52.706Z,5.70
2022-11-19T01:46:54.448Z,6.40
2022-11-19T01:52:00.924Z,6.15
2022-11-19T01:57:09.103Z,5.97
2022-11-19T02:02:10.964Z,6.28
2022-11-19T02:07:14.259Z,7.25
2022-11-19T02:12:41.127Z,8.45
2022-11-19T02:17:53.042Z,8.45
2022-11-19T02:23:16.678Z,9.98
2022-11-19T02:28:36.958Z,10.13
2022-11-19T02:33:54.816Z,7.88
2022-11-19T02:39:04.987Z,6.40
2022-11-19T02:44:34.416Z,7.68
2022-11-19T02:49:41.862Z,6.25
2022-11-19T02:54:43.847Z,6.93
2022-11-19T03:00:15.185Z,6.97
2022-11-19T03:05:21.639Z,6.25
2022-11-19T03:10:28.868Z,6.65
2022-11-19T03:16:07.048Z,6.88
2022-11-19T03:21:35.517Z,7.18
2022-11-19T03:26:44.961Z,6.78
2022-11-19T03:31:53.626Z,5.50
2022-11-19T03:37:00.133Z,5.28
2022-11-19T03:42:10.195Z,5.60
2022-11-19T03:47:16.747Z,5.80
2022-11-19T03:52:21.083Z,7.15
2022-11-19T03:57:27.011Z,6.13
2022-11-19T04:02:28.852Z,7.38
2022-11-19T04:07:30.716Z,6.93
2022-11-19T04:12:32.907Z,6.47
2022-11-19T04:17:34.936Z,6.97
2022-11-19T04:22:36.845Z,6.20
2022-11-19T04:27:38.740Z,7.10
2022-11-19T04:32:41.509Z,5.85
2022-11-19T04:37:43.530Z,6.45
2022-11-19T04:42:45.345Z,6.82
2022-11-19T04:47:47.202Z,6.35
2022-11-19T04:52:48.998Z,6.50
2022-11-19T04:57:52.266Z,7.13
2022-11-19T05:02:54.282Z,6.78
2022-11-19T05:07:56.345Z,6.47
2022-11-19T05:12:58.194Z,6.25
2022-11-19T05:18:00.037Z,7.35
2022-11-19T05:23:01.849Z,7.28
2022-11-19T05:28:03.790Z,7.38
2022-11-19T05:33:05.818Z,7.75
2022-11-19T05:38:08.925Z,7.07
2022-11-19T05:43:10.799Z,7.03
2022-11-19T05:48:12.597Z,8.38
2022-11-19T05:53:14.391Z,6.75
2022-11-19T05:58:16.240Z,6.75
2022-11-19T06:03:18.329Z,8.27
2022-11-19T06:08:20.388Z,7.55
2022-11-19T06:13:22.173Z,7.07
2022-11-19T06:18:24.179Z,6.72
2022-11-19T06:23:26.020Z,7.10
2022-11-19T06:28:30.453Z,7.55
2022-11-19T06:33:32.418Z,6.70
2022-11-19T06:38:34.323Z,7.57
2022-11-19T06:43:36.079Z,6.93
2022-11-19T06:48:38.281Z,7.13
2022-11-19T06:53:40.359Z,8.15
2022-11-19T06:59:10.976Z,7.85
2022-11-19T07:04:12.936Z,7.60
2022-11-19T07:09:18.328Z,8.40
2022-11-19T07:14:23.425Z,7.25
2022-11-19T07:19:25.332Z,7.95
2022-11-19T07:24:27.324Z,8.00
2022-11-19T07:29:29.211Z,6.70
2022-11-19T07:34:31.158Z,8.38
2022-11-19T07:39:32.976Z,8.80
2022-11-19T07:44:34.958Z,7.97
2022-11-19T07:49:36.900Z,9.45
2022-11-19T07:54:38.738Z,8.10
2022-11-19T07:59:40.628Z,8.73
2022-11-19T08:04:42.867Z,9.90
2022-11-19T08:09:44.906Z,8.88
2022-11-19T08:14:46.869Z,8.90
2022-11-19T08:19:49.069Z,10.00
2022-11-19T08:24:51.312Z,10.05
2022-11-19T08:29:53.283Z,10.93
2022-11-19T08:34:55.141Z,10.65
2022-11-19T08:39:57.164Z,8.70
2022-11-19T08:44:59.248Z,9.15
2022-11-19T08:50:01.684Z,8.85
2022-11-19T08:55:04.105Z,8.27
2022-11-19T09:00:06.996Z,8.82
2022-11-19T09:05:14.435Z,8.45
2022-11-19T09:15:20.506Z,8.27
2022-11-19T09:20:22.683Z,9.80
2022-11-19T09:25:24.915Z,8.50
2022-11-19T09:30:27.271Z,9.25
2022-11-19T09:35:29.301Z,10.05
2022-11-19T09:40:31.816Z,8.15
2022-11-19T09:45:43.063Z,8.52
2022-11-19T09:50:58.433Z,8.95
2022-11-19T09:56:00.744Z,9.77
2022-11-19T10:01:03.291Z,7.53
2022-11-19T10:06:27.858Z,7.47
2022-11-19T10:12:08.175Z,6.63
2022-11-19T10:17:30.661Z,7.05
2022-11-19T10:23:06.537Z,6.15
2022-11-19T10:28:15.702Z,8.73
2022-11-19T10:33:32.878Z,5.95
2022-11-19T10:38:40.233Z,7.03
2022-11-19T10:43:48.839Z,6.45
2022-11-19T10:48:55.139Z,5.32
2022-11-19T10:53:57.812Z,5.20
2022-11-19T10:59:16.537Z,5.35
2022-11-19T11:04:22.895Z,4.82
2022-11-19T11:09:42.068Z,4.25
2022-11-19T11:14:55.033Z,3.40
2022-11-19T11:20:08.257Z,5.25
2022-11-19T11:25:19.667Z,4.85
2022-11-19T11:30:21.838Z,2.72
2022-11-19T11:35:38.848Z,3.85
2022-11-19T11:40:41.008Z,3.72
2022-11-19T11:45:43.278Z,3.58
2022-11-19T11:50:46.157Z,3.78
2022-11-19T11:55:57.457Z,4.65
2022-11-19T12:01:19.985Z,4.82
2022-11-19T12:06:28.991Z,3.85
2022-11-19T12:11:55.147Z,3.90
2022-11-19T12:17:22.978Z,3.67
2022-11-19T12:22:54.363Z,3.35
2022-11-19T12:28:09.866Z,4.00
2022-11-19T12:33:40.268Z,4.57
2022-11-19T12:38:53.673Z,2.67
2022-11-19T12:44:00.858Z,3.67
2022-11-19T12:49:18.211Z,3.90
2022-11-19T12:54:46.667Z,3.65
2022-11-19T13:00:10.920Z,4.78
2022-11-19T13:05:43.962Z,4.03
2022-11-19T13:10:51.244Z,4.80
2022-11-19T13:16:00.556Z,3.60
2022-11-19T13:21:08.663Z,4.22
2022-11-19T13:26:39.409Z,3.90
2022-11-19T13:32:07.561Z,4.10
2022-11-19T13:37:32.228Z,3.90
2022-11-19T13:43:17.151Z,3.95
2022-11-19T13:48:15.530Z,4.43
2022-11-19T13:53:34.778Z,4.05
2022-11-19T13:58:40.412Z,3.95
2022-11-19T14:04:14.050Z,4.25
2022-11-19T14:09:38.464Z,4.03
2022-11-19T14:15:02.075Z,4.47
2022-11-19T14:20:49.651Z,3.28
2022-11-19T14:26:10.399Z,4.07
2022-11-19T14:31:13.698Z,3.40
2022-11-19T14:36:44.349Z,4.00
2022-11-19T14:41:46.318Z,3.28
2022-11-19T14:46:49.405Z,4.25
2022-11-19T14:51:55.157Z,3.50
2022-11-19T14:57:38.465Z,4.43
2022-11-19T15:02:48.718Z,4.40
2022-11-19T15:08:11.984Z,4.68
2022-11-19T15:13:20.437Z,4.63
2022-11-19T15:18:40.533Z,4.68
2022-11-19T15:24:17.647Z,12.25
2022-11-19T15:29:34.655Z,11.30
2022-11-19T15:35:10.220Z,10.75
2022-11-19T15:40:17.653Z,10.05
2022-11-19T15:45:24.130Z,7.57
2022-11-19T15:50:28.579Z,6.93
2022-11-19T15:55:31.960Z,7.13
2022-11-19T16:00:45.967Z,6.22
2022-11-19T16:06:08.593Z,5.60
2022-11-19T16:11:35.908Z,7.30
2022-11-19T16:16:57.742Z,7.43
2022-11-19T16:22:03.275Z,8.20
2022-11-19T16:27:10.675Z,8.00
2022-11-19T16:32:19.536Z,11.43
2022-11-19T16:37:22.346Z,10.00
2022-11-19T16:42:29.373Z,8.82
2022-11-19T16:47:51.612Z,8.20
2022-11-19T16:52:55.002Z,7.88
2022-11-19T16:58:00.028Z,7.68
2022-11-19T17:03:16.942Z,8.07
2022-11-19T17:08:23.560Z,8.70
2022-11-19T17:13:32.534Z,6.55
2022-11-19T17:18:34.768Z,8.82
2022-11-19T17:23:48.337Z,9.45
2022-11-19T17:28:54.959Z,8.27
2022-11-19T17:33:58.599Z,8.70
2022-11-19T17:39:00.582Z,8.80
2022-11-19T17:44:21.229Z,9.43
2022-11-19T17:49:23.320Z,10.68
2022-11-19T17:54:25.662Z,10.95
2022-11-19T17:59:27.548Z,10.88
2022-11-19T18:04:29.391Z,10.00
2022-11-19T18:09:34.897Z,12.05
2022-11-19T18:14:37.202Z,13.40
2022-11-19T18:19:39.325Z,11.82
2022-11-19T18:24:41.175Z,14.95
2022-11-19T18:29:43.004Z,10.15
2022-11-19T18:34:46.177Z,11.55
2022-11-19T18:39:48.462Z,10.10
2022-11-19T18:44:50.720Z,10.95
2022-11-19T18:49:52.465Z,9.88
2022-11-19T18:54:54.905Z,9.23
2022-11-19T18:59:56.782Z,10.10
2022-11-19T19:04:58.618Z,9.55
2022-11-19T19:10:00.817Z,8.23
2022-11-19T19:15:03.084Z,8.18
2022-11-19T19:20:06.520Z,7.40
2022-11-19T19:25:09.233Z,6.03
2022-11-19T19:30:11.440Z,6.57
2022-11-19T19:35:13.630Z,6.80
2022-11-19T19:40:15.402Z,7.07
2022-11-19T19:45:17.263Z,5.60
2022-11-19T19:50:19.079Z,7.22
2022-11-19T19:55:21.029Z,7.57
2022-11-19T20:00:23.805Z,7.55
2022-11-19T20:05:25.514Z,7.38
2022-11-19T20:10:27.318Z,10.18
2022-11-19T20:15:29.169Z,8.40
2022-11-19T20:20:31.018Z,7.93
2022-11-19T20:25:32.859Z,7.85
2022-11-19T20:30:35.319Z,8.18
2022-11-19T20:35:37.272Z,7.22
2022-11-19T20:40:39.293Z,6.88
2022-11-19T20:45:41.192Z,6.40
2022-11-19T20:50:42.975Z,6.88
2022-11-19T20:56:04.628Z,6.70
2022-11-19T21:01:12.103Z,7.53
2022-11-19T21:06:13.896Z,7.72
2022-11-19T21:11:16.453Z,7.32
2022-11-19T21:16:21.420Z,7.20
2022-11-19T21:21:24.492Z,6.75
2022-11-19T21:26:28.116Z,7.20
2022-11-19T21:31:39.879Z,5.93
2022-11-19T21:36:43.087Z,6.75
2022-11-19T21:41:45.013Z,6.63
2022-11-19T21:46:46.854Z,6.28
2022-11-19T21:51:49.143Z,6.28
2022-11-19T21:56:50.950Z,6.32
2022-11-19T22:01:54.845Z,5.72
2022-11-19T22:06:56.855Z,6.05
2022-11-19T22:11:58.701Z,7.22
2022-11-19T22:17:00.529Z,7.78
2022-11-19T22:22:03.510Z,8.60
2022-11-19T22:27:05.261Z,10.32
2022-11-19T22:32:07.202Z,9.38
2022-11-19T22:37:08.943Z,10.75
2022-11-19T22:42:10.771Z,7.75
2022-11-19T22:47:14.753Z,7.97
2022-11-19T22:52:17.785Z,7.70
2022-11-19T22:57:19.491Z,8.65
2022-11-19T23:02:21.215Z,8.70
2022-11-19T23:07:23.004Z,7.65
2022-11-19T23:12:43.335Z,7.65
2022-11-19T23:17:45.036Z,7.95
2022-11-19T23:22:46.783Z,7.75
2022-11-19T23:27:48.540Z,7.18
2022-11-19T23:32:50.282Z,5.93
2022-11-19T23:37:52.156Z,5.68
2022-11-19T23:42:53.895Z,6.15
2022-11-19T23:47:55.632Z,5.75
2022-11-19T23:52:57.396Z,5.45
2022-11-19T23:57:59.144Z,6.25
